Pagina principale
METAR-TAF:

METAR-TAF

Aeroporti :

Aeroporto di Tolone-Hyères

Tolone, Francia

latitudine: 43-06N, longitudine: 006-09E, altezza: 3 m

Osservazione

Il bollettino è stato emesso 6 ore e 54 minuti fa, alle 05:00 UTC
Vento 3 kt da nord, variando fra nord-ovest e nord-est
Temperature 21°C
Umidità 73%
Pressione 1014 hPa
Visibilità 10 km o più
nessuna nube inferiore a 1500 m e nessun cumulonembo

METAR: LFTH 210500Z AUTO 01003KT 320V040 CAVOK 21/16 Q1014 NOSIG

Ora: 13:54 (11:54 UTC)

Previsione

Il bollettino è stato emesso 9 ore e 54 minuti fa, alle 02:00 UTC
Previsione valida dal 21 alle 03 UTC al 22 alle 03 UTC
Vento 5 kt da direzioni variabili
Visibilità 10 km o più
nessuna nube inferiore a 1500 m e nessun cumulonembo
Temporaneamente
dal 21 alle 10 UTC al 21 alle 14 UTC
Vento 8 kt da sud-est
Temporaneamente
dal 22 alle 00 UTC al 22 alle 03 UTC
Vento 7 kt da nord/nord-ovest

TAF: LFTH 210200Z 2103/2203 VRB05KT CAVOK TEMPO 2110/2114 13008KT TEMPO 2200/2203 33007KT

Osservazioni e previsioni meteorologiche di più di 4000 aeroporti (messaggi METAR e TAF).

Le stazioni disponibili sono rappresentate dai dischi gialli e rossi sulla carta.

Puntare il mouse per vedere il nome della stazione.

Clicca sopra per visualizzare le osservazioni e previsioni meteorologiche.

Per cambiare la mappa : fare clic sui pulsanti verdi con una croce nera per ingrandire, il pulsante verde con un trattino per diminuire, o sulla freccia verde per le mappe adiacenti.


METAR-TAF: